M I D A S
Marine Information and Data Acquisition System
Tripno 1872 of the Zeeleeuw from 2010-04-30 10:37:57 to 2010-04-30 13:23:04
Back to CruiseResearch ActivitiesStationsMapUnderway DataData graphs

EquipmentUnitsComment
TimeDGPSUTC
LatitudeDGPSDM.mWGS84
LongitudeDGPSDM.mWGS84
HeadingGyrodeg 
SOGDGPSknotsSpeed over ground
COGDGPSdegCourse over ground
DepthEcho soundermeters200 kHz
Missing or incorrect values are displayed as -999
Navigation data collected by the RV Zeeleeuw from 2010-04-30 10:41:07 to 2010-04-30 13:44:27
Time Latitude Longitude Heading SOG COG Depth
2010-04-30 10:42:14 51°13.677 2°55.91 111.1 3.2 292 -999
2010-04-30 10:43:14 51°13.695 2°55.812 101 3.9 282 -999
2010-04-30 10:44:14 51°13.704 2°55.76 78.5 0.7 57 4.7
2010-04-30 10:45:14 51°13.697 2°55.743 39.7 1.2 229 -999
2010-04-30 10:46:14 51°13.731 2°55.723 335.2 5.3 333 -999
2010-04-30 10:47:14 51°13.851 2°55.623 333.7 9.6 334 11.3
2010-04-30 10:48:14 51°14.003 2°55.517 337.5 10.1 336 11.4
2010-04-30 10:49:14 51°14.157 2°55.397 334.4 10.6 333 -999
2010-04-30 10:50:12 51°14.312 2°55.254 328.9 11.5 328 11.4
2010-04-30 10:51:11 51°14.48 2°55.087 327.1 12.8 326 11.5
2010-04-30 10:52:11 51°14.646 2°54.867 329.9 13.2 326 12.3
2010-04-30 10:53:11 51°14.837 2°54.687 333.7 13.4 330 12.9
2010-04-30 10:54:11 51°15.029 2°54.51 331.8 13.2 326 10.2
2010-04-30 10:55:11 51°15.213 2°54.318 329 13.3 326 9.7
2010-04-30 10:56:11 51°15.387 2°54.1 323.6 13.3 321 10.4
2010-04-30 10:57:11 51°15.56 2°53.878 324.7 13.3 321 11.2
2010-04-30 10:58:11 51°15.726 2°53.643 319.7 13.5 316 12
2010-04-30 10:59:11 51°15.887 2°53.397 319.9 13.4 317 12.5
2010-04-30 11:00:11 51°16.068 2°53.2 334.1 13.1 329 12.4
2010-04-30 11:01:11 51°16.264 2°53.045 336.5 13.1 335 13
2010-04-30 11:02:11 51°16.465 2°52.909 339.2 13.1 338 12.5
2010-04-30 11:03:11 51°16.666 2°52.773 339.2 13.1 338 12
2010-04-30 11:04:11 51°16.864 2°52.632 338.9 13 336 10.6
2010-04-30 11:05:11 51°17.061 2°52.49 338.3 13 336 10.6
2010-04-30 11:06:11 51°17.259 2°52.346 338.5 13 335 11.3
2010-04-30 11:07:11 51°17.457 2°52.198 338.4 13.1 334 12.4
2010-04-30 11:08:11 51°17.642 2°52.015 329.8 13 326 11.5
2010-04-30 11:09:11 51°17.823 2°51.822 330.1 13 326 10.9
2010-04-30 11:10:11 51°18.002 2°51.624 326 13.1 324 11.5
2010-04-30 11:11:11 51°18.172 2°51.406 324.2 13.1 321 13
2010-04-30 11:12:11 51°18.321 2°51.207 322.7 8.8 319 14.6
2010-04-30 11:13:11 51°18.402 2°51.095 323.8 4.9 321 14.2
2010-04-30 11:14:11 51°18.448 2°51.031 320.9 2.7 316 15
2010-04-30 11:15:11 51°18.464 2°51.005 320 0.5 300 14.9
2010-04-30 11:16:11 51°18.467 2°50.999 313.5 0.1 339 14.8
2010-04-30 11:17:11 51°18.467 2°51.003 314.8 0.4 130 15.1
2010-04-30 11:18:11 51°18.463 2°51.016 323.9 0.6 114 15.1
2010-04-30 11:19:11 51°18.457 2°51.033 342.8 0.8 127 15.2
2010-04-30 11:20:11 51°18.449 2°51.051 352.1 0.8 126 15
2010-04-30 11:21:11 51°18.441 2°51.07 355.4 0.8 122 14.9
2010-04-30 11:22:11 51°18.436 2°51.087 352.2 0.8 115 14.8
2010-04-30 11:23:11 51°18.431 2°51.104 346.9 0.7 119 15.1
2010-04-30 11:24:11 51°18.426 2°51.122 341.9 0.9 101 14.6
2010-04-30 11:25:11 51°18.423 2°51.141 342.4 0.7 104 15
2010-04-30 11:26:11 51°18.421 2°51.16 340.5 0.7 107 15
2010-04-30 11:27:11 51°18.418 2°51.182 341.9 0.9 102 14.6
2010-04-30 11:28:11 51°18.416 2°51.204 345.1 0.9 104 14.8
2010-04-30 11:29:11 51°18.412 2°51.227 345.3 1 106 14.8
2010-04-30 11:30:11 51°18.416 2°51.249 349.4 1.2 28 14.8
2010-04-30 11:31:11 51°18.46 2°51.265 14.6 4.1 23 15.1
2010-04-30 11:32:11 51°18.484 2°51.379 99.5 5.4 109 15
2010-04-30 11:33:11 51°18.415 2°51.455 178.6 5.4 172 14.7
2010-04-30 11:34:11 51°18.315 2°51.475 173.6 6.7 168 14.1
2010-04-30 11:35:11 51°18.204 2°51.537 164.2 7.1 158 13.9
2010-04-30 11:36:11 51°18.093 2°51.607 166.5 7.2 161 13.2
2010-04-30 11:37:11 51°17.986 2°51.633 204.1 5.3 199 12.6
2010-04-30 11:38:11 51°17.958 2°51.552 285.6 2.3 291 13
2010-04-30 11:39:11 51°17.975 2°51.547 321.2 1 25 12.7
2010-04-30 11:40:11 51°17.987 2°51.564 316 1 58 12.9
2010-04-30 11:41:11 51°17.995 2°51.593 318.2 1.4 72 12.6
2010-04-30 11:42:11 51°17.999 2°51.628 328.8 1.4 82 12.2
2010-04-30 11:43:11 51°18.001 2°51.668 344.4 1.4 91 12.6
2010-04-30 11:44:11 51°18.001 2°51.708 354.7 1.5 90 13
2010-04-30 11:45:11 51°18.003 2°51.747 353.1 1.4 83 12.7
2010-04-30 11:46:11 51°18.004 2°51.785 350.1 1.5 87 12.9
2010-04-30 11:47:12 51°18.008 2°51.824 347.7 1.5 79 13
2010-04-30 11:48:11 51°18.027 2°51.843 317.1 1.4 358 12.8
2010-04-30 11:49:11 51°18.044 2°51.817 270.5 1.9 274 13.2
2010-04-30 11:50:11 51°18.008 2°51.796 185.9 3.8 162 12.9
2010-04-30 11:51:11 51°17.879 2°51.872 166 11.8 159 12.7
2010-04-30 11:52:11 51°17.687 2°52.024 151.6 13.3 146 12.8
2010-04-30 11:53:11 51°17.505 2°52.223 155.3 13.2 149 13.5
2010-04-30 11:54:11 51°17.351 2°52.479 133.2 13.5 132 12.5
2010-04-30 11:55:11 51°17.189 2°52.722 151.5 13.2 149 12.2
2010-04-30 11:56:11 51°16.99 2°52.854 158.5 13 152 11.4
2010-04-30 11:57:11 51°16.83 2°53.1 132 13.9 123 12.2
2010-04-30 11:58:11 51°16.745 2°53.37 136.1 7.7 134 13.7
2010-04-30 11:59:11 51°16.671 2°53.408 215.2 3.4 203 14
2010-04-30 12:00:11 51°16.66 2°53.366 276 0.8 326 14.1
2010-04-30 12:01:11 51°16.679 2°53.38 302 1.9 47 14.4
2010-04-30 12:02:11 51°16.702 2°53.42 313.9 2.2 47 14.7
2010-04-30 12:03:11 51°16.727 2°53.456 308.4 2 32 14
2010-04-30 12:04:11 51°16.751 2°53.455 269.5 1.6 283 14.2
2010-04-30 12:05:11 51°16.702 2°53.433 198.2 5.3 180 14.4
2010-04-30 12:06:11 51°16.617 2°53.404 232.6 4.1 232 14.9
2010-04-30 12:07:11 51°16.619 2°53.33 272.7 1.7 300 14.6
2010-04-30 12:08:11 51°16.638 2°53.318 279.9 1.4 9 14.5
2010-04-30 12:09:11 51°16.656 2°53.332 265.3 1.2 38 14.3
2010-04-30 12:10:11 51°16.671 2°53.355 259.6 1.2 49 14.3
2010-04-30 12:11:11 51°16.684 2°53.384 259.6 1.4 60 14.5
2010-04-30 12:12:11 51°16.695 2°53.416 253.3 1.3 59 14.2
2010-04-30 12:13:11 51°16.704 2°53.448 245.3 1.4 73 14.1
2010-04-30 12:14:11 51°16.709 2°53.488 228.2 1.6 81 14.3
2010-04-30 12:15:11 51°16.711 2°53.538 210.4 2 90 14.7
2010-04-30 12:16:11 51°16.7 2°53.568 233.2 0.8 157 14.7
2010-04-30 12:17:11 51°16.704 2°53.569 270.1 1 25 14.8
2010-04-30 12:18:11 51°16.727 2°53.596 287.8 2 36 14.3
2010-04-30 12:19:11 51°16.752 2°53.628 276.7 1.7 38 14.4
2010-04-30 12:20:11 51°16.775 2°53.652 274.4 1.6 30 14.3
2010-04-30 12:21:11 51°16.797 2°53.669 273 1.4 23 14.3
2010-04-30 12:22:11 51°16.817 2°53.683 269.1 1.2 25 14.4
2010-04-30 12:23:11 51°16.838 2°53.697 271.4 1.4 25 14.6
2010-04-30 12:24:11 51°16.859 2°53.709 273.2 1.4 16 14.4
2010-04-30 12:25:11 51°16.882 2°53.719 273.5 1.4 17 14.4
2010-04-30 12:26:11 51°16.899 2°53.733 255.6 1 43 14.2
2010-04-30 12:27:11 51°16.863 2°53.709 215.4 6.2 204 14.3
2010-04-30 12:28:11 51°16.74 2°53.64 200.4 8.8 188 14.6
2010-04-30 12:29:11 51°16.64 2°53.577 237.4 3.1 229 15.1
2010-04-30 12:30:11 51°16.638 2°53.541 264.4 0.9 320 15
2010-04-30 12:31:11 51°16.654 2°53.544 269.5 1.2 29 14.9
2010-04-30 12:32:11 51°16.673 2°53.569 269.7 1.5 40 14.9
2010-04-30 12:33:11 51°16.69 2°53.591 259.1 1 40 14.9
2010-04-30 12:34:11 51°16.698 2°53.607 244.3 0.6 81 14.7
2010-04-30 12:35:11 51°16.696 2°53.627 232.5 0.8 108 14.8
2010-04-30 12:36:11 51°16.697 2°53.642 254 0.5 50 14.8
2010-04-30 12:37:11 51°16.707 2°53.646 261.1 0.7 9 15
2010-04-30 12:38:11 51°16.724 2°53.65 264.3 1 6 14.7
2010-04-30 12:39:11 51°16.738 2°53.649 261.5 0.9 346 14.9
2010-04-30 12:40:11 51°16.753 2°53.644 261.1 0.8 349 14.7
2010-04-30 12:41:11 51°16.763 2°53.641 249.3 0.3 26 15.1
2010-04-30 12:42:11 51°16.762 2°53.652 229.9 0.7 122 14.8
2010-04-30 12:43:11 51°16.752 2°53.676 217.5 1.2 126 14.7
2010-04-30 12:44:11 51°16.75 2°53.693 246.1 0.5 66 15.1
2010-04-30 12:45:11 51°16.761 2°53.702 263.6 1 8 14.7
2010-04-30 12:46:11 51°16.782 2°53.703 272.2 1.3 358 14.7
2010-04-30 12:47:11 51°16.803 2°53.702 262.8 1.1 -999 14.8
2010-04-30 12:48:11 51°16.814 2°53.702 250.5 0.4 357 14.5
2010-04-30 12:49:11 51°16.816 2°53.706 240.1 0.2 58 14.7
2010-04-30 12:50:11 51°16.816 2°53.709 242.9 0.1 109 14.7
2010-04-30 12:51:11 51°16.817 2°53.71 242.2 0.1 63 14.7
2010-04-30 12:52:11 51°16.818 2°53.712 242.7 0.2 61 14.4
2010-04-30 12:53:11 51°16.818 2°53.716 240.7 0.2 128 14.5
2010-04-30 12:54:11 51°16.818 2°53.719 240.5 0.2 92 14.8
2010-04-30 12:55:11 51°16.819 2°53.725 239.2 0.2 107 14.4
2010-04-30 12:56:11 51°16.813 2°53.734 227 0.9 139 14.5
2010-04-30 12:57:11 51°16.789 2°53.74 221.4 2.4 193 14.8
2010-04-30 12:58:11 51°16.751 2°53.678 238.3 3.8 227 14.8
2010-04-30 12:59:11 51°16.675 2°53.689 177.7 6.3 151 14.8
2010-04-30 13:00:11 51°16.601 2°53.859 117.5 9.6 101 15.1
2010-04-30 13:01:11 51°16.589 2°54.196 108.1 13.6 104 14.7
2010-04-30 13:02:11 51°16.544 2°54.514 119 10.3 110 15.1
2010-04-30 13:03:11 51°16.471 2°54.611 199.7 3.5 177 15
2010-04-30 13:04:11 51°16.443 2°54.532 247.6 5.3 245 14.7
2010-04-30 13:05:11 51°16.359 2°54.414 227 7.4 224 14.6
2010-04-30 13:06:11 51°16.302 2°54.322 238.3 2.3 232 14.9
2010-04-30 13:07:11 51°16.294 2°54.302 241.6 0.2 243 14.6
2010-04-30 13:08:11 51°16.297 2°54.31 245.2 0.6 49 14.7
2010-04-30 13:09:11 51°16.302 2°54.321 247.3 0.5 64 14.8
2010-04-30 13:10:11 51°16.306 2°54.328 245.3 0.2 39 14.8
2010-04-30 13:11:11 51°16.307 2°54.336 238.2 0.3 108 14.8
2010-04-30 13:12:11 51°16.302 2°54.352 224.7 1 116 15
2010-04-30 13:13:11 51°16.295 2°54.373 232.2 0.7 108 14.6
2010-04-30 13:14:11 51°16.291 2°54.392 233.2 0.7 119 14.5
2010-04-30 13:15:11 51°16.287 2°54.4 241.4 0.2 151 14.8
2010-04-30 13:16:11 51°16.286 2°54.398 246 0.2 237 14.6
2010-04-30 13:17:11 51°16.287 2°54.392 248.8 0.3 298 14.7
2010-04-30 13:18:11 51°16.293 2°54.382 254.8 0.6 326 14.6
2010-04-30 13:19:11 51°16.3 2°54.377 244 0.1 339 14.6
2010-04-30 13:20:11 51°16.299 2°54.378 237.9 0.2 132 14.6
2010-04-30 13:21:11 51°16.29 2°54.391 220 1.1 133 14.7
2010-04-30 13:22:11 51°16.254 2°54.38 220.7 3.4 208 14.9
2010-04-30 13:23:11 51°16.192 2°54.294 229.7 6.7 226 14.6
2010-04-30 13:24:11 51°16.109 2°54.151 230.5 7.6 227 14.5
2010-04-30 13:25:11 51°16.02 2°54.001 230 7.9 226 14.6
2010-04-30 13:26:11 51°15.915 2°53.877 215.5 8 206 14.6
2010-04-30 13:27:11 51°15.782 2°53.799 201.9 9.6 192 14.5
2010-04-30 13:28:11 51°15.603 2°53.773 189.2 11.6 182 14.4
2010-04-30 13:29:11 51°15.404 2°53.775 187 12 179 13.2
2010-04-30 13:30:11 51°15.211 2°53.907 156.9 13.2 142 13
2010-04-30 13:31:11 51°15.081 2°54.2 126.6 14 118 12.1
2010-04-30 13:32:11 51°14.947 2°54.5 142.6 13.6 133 13.3
2010-04-30 13:33:11 51°14.784 2°54.749 145.4 13.7 135 15.4
2010-04-30 13:34:11 51°14.604 2°54.953 157.7 13.1 145 14.7
2010-04-30 13:35:11 51°14.418 2°55.125 156.3 12.9 152 13.8
2010-04-30 13:36:11 51°14.262 2°55.297 145.3 9.3 145 14
2010-04-30 13:37:11 51°14.153 2°55.408 150.8 7.1 150 14.3
2010-04-30 13:38:11 51°14.047 2°55.489 156.1 7.3 156 14.2
2010-04-30 13:39:14 51°13.929 2°55.568 159.2 7.2 158 -999
2010-04-30 13:40:14 51°13.818 2°55.636 155.7 6.8 156 -999
2010-04-30 13:41:14 51°13.745 2°55.721 129.3 4.7 129 -999
2010-04-30 13:42:14 51°13.702 2°55.816 126.4 4.2 125 -999
2010-04-30 13:43:15 51°13.673 2°55.912 108.5 3.6 109 -999
2010-04-30 13:44:14 51°13.663 2°55.955 122 0.5 114 -999